Georgetown, DE

4:15 PM EST on February 27, 2017 (GMT -0500)
Georgetown Admin | | Change Station

Elev 56 ft 38.66 °N, 75.38 °W | Updated 1 minute ago

Partly Cloudy
Partly Cloudy
55.4 °F
Feels Like 55.4 °F
N
3.5
Wind Variable Wind from SW
Gusts 7.0 mph

Today
High -- | Low -- °F
--% Chance of Precip.
Yesterday
High -- | Low -- °F
Precip. -- in
Pressure 30.41 in
Visibility 10.0 miles
Clouds Few 8500 ft
Dew Point 28 °F
Humidity 34%
Rainfall 0.00 in
Snow Depth Not available.
6:36 AM 5:52 PM
New Moon, 2% visible
METAR KGED 272054Z AUTO 23009KT 10SM FEW085 14/M05 A3041 RMK AO2 SLP298 T01391050 55003 $
Pressure 30.41 in
Visibility 10.0 miles
Clouds Few 8500 ft
Dew Point 28 °F
Humidity 34%
Rainfall 0.00 in
Snow Depth Not available.
6:36 AM 5:52 PM
New Moon, 2% visible
METAR KGED 272054Z AUTO 23009KT 10SM FEW085 14/M05 A3041 RMK AO2 SLP298 T01391050 55003 $

Get Your Daily Forecast Email!

Thanks for signing up!

Be on the lookout for a verification email in your inbox.

You'll start receiving the daily forecast at 8 AM.

×

10-Day Weather Forecast

Almanac

Astronomy

Feb. 27, 2017 Rise Set
Actual Time
Civil Twilight
Nautical Twilight
Astronomical Twilight
Moon
Length of Visible Light
Length of Day
Tomorrow will be .
, % of the Moon is Illuminated

Today's Extremes

State Highs State Lows

Community

WunderPhotos

Upload Photos

1,962,540 photos uploaded!

WunderBlog® & News

Nearby

Air Quality

  Air Quality AQ Index Pollutant
Not available.

Snow Depth

Station Depth Elevation

Earthquake Activity

City Distance Mag. Time & Date
Minimum magnitude displayed is 2.5.

Coastal Water Temperatures

Place Temperature

Stations

Nearby Weather Stations

Station Location Temp. Windchill Dew Point Humidity Wind Precip. Elev Updated Type
                   

Watches & Warnings

There are currently no watches in effect.